sensor_id;sensor_type;location;lat;lon;timestamp;temperature;humidity
1568;DHT22;777;47.156;8.326;2023-06-05T00:01:02;15.50;99.90
1568;DHT22;777;47.156;8.326;2023-06-05T00:03:29;15.70;99.90
1568;DHT22;777;47.156;8.326;2023-06-05T00:05:56;15.60;99.90
1568;DHT22;777;47.156;8.326;2023-06-05T00:08:23;15.60;99.90
1568;DHT22;777;47.156;8.326;2023-06-05T00:10:51;15.60;99.90
1568;DHT22;777;47.156;8.326;2023-06-05T00:13:18;14.90;99.90
1568;DHT22;777;47.156;8.326;2023-06-05T00:15:44;14.80;99.90
1568;DHT22;777;47.156;8.326;2023-06-05T00:18:12;14.60;99.90
1568;DHT22;777;47.156;8.326;2023-06-05T00:20:40;14.20;99.90
1568;DHT22;777;47.156;8.326;2023-06-05T00:23:07;14.50;99.90
1568;DHT22;777;47.156;8.326;2023-06-05T00:25:34;14.50;99.90
1568;DHT22;777;47.156;8.326;2023-06-05T00:28:02;14.40;99.90
1568;DHT22;777;47.156;8.326;2023-06-05T00:30:29;14.30;99.90
1568;DHT22;777;47.156;8.326;2023-06-05T00:32:57;14.30;99.90
1568;DHT22;777;47.156;8.326;2023-06-05T00:35:24;14.20;99.90
1568;DHT22;777;47.156;8.326;2023-06-05T00:37:51;14.10;99.90
1568;DHT22;777;47.156;8.326;2023-06-05T00:40:18;14.40;99.90
1568;DHT22;777;47.156;8.326;2023-06-05T00:42:45;14.50;99.90
1568;DHT22;777;47.156;8.326;2023-06-05T00:45:13;14.50;99.90
1568;DHT22;777;47.156;8.326;2023-06-05T00:47:40;14.60;99.90
1568;DHT22;777;47.156;8.326;2023-06-05T00:50:08;14.60;99.90
1568;DHT22;777;47.156;8.326;2023-06-05T00:52:37;14.10;99.90
1568;DHT22;777;47.156;8.326;2023-06-05T00:55:05;14.10;99.90
1568;DHT22;777;47.156;8.326;2023-06-05T00:57:32;13.90;99.90
1568;DHT22;777;47.156;8.326;2023-06-05T01:00:00;14.00;99.90
1568;DHT22;777;47.156;8.326;2023-06-05T01:02:34;14.20;99.90
1568;DHT22;777;47.156;8.326;2023-06-05T01:05:03;14.30;99.90
1568;DHT22;777;47.156;8.326;2023-06-05T01:07:31;14.00;99.90
1568;DHT22;777;47.156;8.326;2023-06-05T01:09:59;13.60;99.90
1568;DHT22;777;47.156;8.326;2023-06-05T01:12:30;13.70;99.90
1568;DHT22;777;47.156;8.326;2023-06-05T01:15:01;13.70;99.90
1568;DHT22;777;47.156;8.326;2023-06-05T01:17:31;13.90;99.90
1568;DHT22;777;47.156;8.326;2023-06-05T01:20:01;14.10;99.90
1568;DHT22;777;47.156;8.326;2023-06-05T01:22:32;13.90;99.90
1568;DHT22;777;47.156;8.326;2023-06-05T01:25:01;13.50;99.90
1568;DHT22;777;47.156;8.326;2023-06-05T01:27:33;13.30;99.90
1568;DHT22;777;47.156;8.326;2023-06-05T01:30:06;13.50;99.90
1568;DHT22;777;47.156;8.326;2023-06-05T01:32:39;13.60;99.90
1568;DHT22;777;47.156;8.326;2023-06-05T01:35:09;13.50;99.90
1568;DHT22;777;47.156;8.326;2023-06-05T01:37:38;13.50;99.90
1568;DHT22;777;47.156;8.326;2023-06-05T01:40:11;13.20;99.90
1568;DHT22;777;47.156;8.326;2023-06-05T01:42:40;13.20;99.90
1568;DHT22;777;47.156;8.326;2023-06-05T01:45:09;13.40;99.90
1568;DHT22;777;47.156;8.326;2023-06-05T01:47:37;13.60;99.90
1568;DHT22;777;47.156;8.326;2023-06-05T01:50:05;13.40;99.90
1568;DHT22;777;47.156;8.326;2023-06-05T01:52:33;13.50;99.90
1568;DHT22;777;47.156;8.326;2023-06-05T01:55:00;13.20;99.90
1568;DHT22;777;47.156;8.326;2023-06-05T01:57:29;12.90;99.90
1568;DHT22;777;47.156;8.326;2023-06-05T01:59:56;13.10;99.90
1568;DHT22;777;47.156;8.326;2023-06-05T02:02:23;13.30;99.90
1568;DHT22;777;47.156;8.326;2023-06-05T02:04:51;13.40;99.90
1568;DHT22;777;47.156;8.326;2023-06-05T02:07:19;13.30;99.90
1568;DHT22;777;47.156;8.326;2023-06-05T02:09:47;13.30;99.90
1568;DHT22;777;47.156;8.326;2023-06-05T02:12:14;13.10;99.90
1568;DHT22;777;47.156;8.326;2023-06-05T02:14:43;13.20;99.90
1568;DHT22;777;47.156;8.326;2023-06-05T02:17:10;13.10;99.90
1568;DHT22;777;47.156;8.326;2023-06-05T02:19:39;13.10;99.90
1568;DHT22;777;47.156;8.326;2023-06-05T02:22:06;13.20;99.90
1568;DHT22;777;47.156;8.326;2023-06-05T02:24:33;12.80;99.90
1568;DHT22;777;47.156;8.326;2023-06-05T02:27:01;12.70;99.90
1568;DHT22;777;47.156;8.326;2023-06-05T02:29:28;12.80;99.90
1568;DHT22;777;47.156;8.326;2023-06-05T02:31:56;12.70;99.90
1568;DHT22;777;47.156;8.326;2023-06-05T02:34:23;12.90;99.90
1568;DHT22;777;47.156;8.326;2023-06-05T02:36:50;12.90;99.90
1568;DHT22;777;47.156;8.326;2023-06-05T02:39:17;13.00;99.90
1568;DHT22;777;47.156;8.326;2023-06-05T02:41:44;12.90;99.90
1568;DHT22;777;47.156;8.326;2023-06-05T02:44:11;12.60;99.90
1568;DHT22;777;47.156;8.326;2023-06-05T02:46:39;12.60;99.90
1568;DHT22;777;47.156;8.326;2023-06-05T02:49:07;12.80;99.90
1568;DHT22;777;47.156;8.326;2023-06-05T02:51:34;12.80;99.90
1568;DHT22;777;47.156;8.326;2023-06-05T02:54:02;12.90;99.90
1568;DHT22;777;47.156;8.326;2023-06-05T02:56:29;12.90;99.90
1568;DHT22;777;47.156;8.326;2023-06-05T02:58:57;12.90;99.90
1568;DHT22;777;47.156;8.326;2023-06-05T03:01:25;12.80;99.90
1568;DHT22;777;47.156;8.326;2023-06-05T03:04:02;12.60;99.90
1568;DHT22;777;47.156;8.326;2023-06-05T03:06:32;12.60;99.90
1568;DHT22;777;47.156;8.326;2023-06-05T03:09:03;12.60;99.90
1568;DHT22;777;47.156;8.326;2023-06-05T03:11:30;12.50;99.90
1568;DHT22;777;47.156;8.326;2023-06-05T03:13:57;12.40;99.90
1568;DHT22;777;47.156;8.326;2023-06-05T03:16:27;12.30;99.90
1568;DHT22;777;47.156;8.326;2023-06-05T03:18:59;12.40;99.90
1568;DHT22;777;47.156;8.326;2023-06-05T03:21:27;12.50;99.90
1568;DHT22;777;47.156;8.326;2023-06-05T03:23:55;12.60;99.90
1568;DHT22;777;47.156;8.326;2023-06-05T03:26:22;12.40;99.90
1568;DHT22;777;47.156;8.326;2023-06-05T03:28:51;12.30;99.90
1568;DHT22;777;47.156;8.326;2023-06-05T03:31:18;12.50;99.90
1568;DHT22;777;47.156;8.326;2023-06-05T03:33:47;12.20;99.90
1568;DHT22;777;47.156;8.326;2023-06-05T03:36:15;12.30;99.90
1568;DHT22;777;47.156;8.326;2023-06-05T03:38:44;12.30;99.90
1568;DHT22;777;47.156;8.326;2023-06-05T03:41:12;12.20;99.90
1568;DHT22;777;47.156;8.326;2023-06-05T03:43:39;11.90;99.90
1568;DHT22;777;47.156;8.326;2023-06-05T03:46:06;12.10;99.90
1568;DHT22;777;47.156;8.326;2023-06-05T03:48:33;11.90;99.90
1568;DHT22;777;47.156;8.326;2023-06-05T03:51:00;11.90;99.90
1568;DHT22;777;47.156;8.326;2023-06-05T03:53:28;12.00;99.90
1568;DHT22;777;47.156;8.326;2023-06-05T03:55:56;12.20;99.90
1568;DHT22;777;47.156;8.326;2023-06-05T03:58:32;12.30;99.90
1568;DHT22;777;47.156;8.326;2023-06-05T04:01:00;12.20;99.90
1568;DHT22;777;47.156;8.326;2023-06-05T04:03:28;12.40;99.90
1568;DHT22;777;47.156;8.326;2023-06-05T04:05:56;12.70;99.90
1568;DHT22;777;47.156;8.326;2023-06-05T04:08:23;13.00;99.90
1568;DHT22;777;47.156;8.326;2023-06-05T04:10:50;13.20;99.90
1568;DHT22;777;47.156;8.326;2023-06-05T04:13:17;13.20;99.90
1568;DHT22;777;47.156;8.326;2023-06-05T04:15:46;13.50;99.90
1568;DHT22;777;47.156;8.326;2023-06-05T04:18:14;13.70;99.90
1568;DHT22;777;47.156;8.326;2023-06-05T04:20:41;13.90;99.90
1568;DHT22;777;47.156;8.326;2023-06-05T04:23:09;14.60;99.90
1568;DHT22;777;47.156;8.326;2023-06-05T04:25:40;14.80;99.90
1568;DHT22;777;47.156;8.326;2023-06-05T04:28:12;14.90;99.90
1568;DHT22;777;47.156;8.326;2023-06-05T04:30:38;15.50;99.90
1568;DHT22;777;47.156;8.326;2023-06-05T04:33:07;15.80;99.90
1568;DHT22;777;47.156;8.326;2023-06-05T04:35:37;15.70;99.90
1568;DHT22;777;47.156;8.326;2023-06-05T04:38:04;16.50;99.90
1568;DHT22;777;47.156;8.326;2023-06-05T04:40:32;16.60;99.90
1568;DHT22;777;47.156;8.326;2023-06-05T04:42:59;17.00;99.90
1568;DHT22;777;47.156;8.326;2023-06-05T04:45:27;17.30;99.90
1568;DHT22;777;47.156;8.326;2023-06-05T04:47:54;17.00;99.90
1568;DHT22;777;47.156;8.326;2023-06-05T04:50:24;16.80;99.90
1568;DHT22;777;47.156;8.326;2023-06-05T04:52:54;16.40;99.90
1568;DHT22;777;47.156;8.326;2023-06-05T04:55:22;16.20;99.90
1568;DHT22;777;47.156;8.326;2023-06-05T04:57:52;16.00;99.90
1568;DHT22;777;47.156;8.326;2023-06-05T05:00:19;15.90;99.90
1568;DHT22;777;47.156;8.326;2023-06-05T05:02:47;15.90;99.90
1568;DHT22;777;47.156;8.326;2023-06-05T05:05:16;16.00;99.90
1568;DHT22;777;47.156;8.326;2023-06-05T05:07:47;16.00;99.90
1568;DHT22;777;47.156;8.326;2023-06-05T05:10:14;16.10;99.90
1568;DHT22;777;47.156;8.326;2023-06-05T05:12:42;16.30;99.90
1568;DHT22;777;47.156;8.326;2023-06-05T05:15:09;16.40;99.90
1568;DHT22;777;47.156;8.326;2023-06-05T05:17:37;16.40;99.90
1568;DHT22;777;47.156;8.326;2023-06-05T05:20:05;16.50;99.90
1568;DHT22;777;47.156;8.326;2023-06-05T05:22:35;16.50;99.90
1568;DHT22;777;47.156;8.326;2023-06-05T05:25:04;16.60;99.90
1568;DHT22;777;47.156;8.326;2023-06-05T05:27:31;16.70;99.90
1568;DHT22;777;47.156;8.326;2023-06-05T05:29:57;16.70;99.90
1568;DHT22;777;47.156;8.326;2023-06-05T05:32:24;16.80;99.90
1568;DHT22;777;47.156;8.326;2023-06-05T05:34:51;17.00;99.90
1568;DHT22;777;47.156;8.326;2023-06-05T05:37:18;17.00;99.90
1568;DHT22;777;47.156;8.326;2023-06-05T05:39:46;17.10;99.90
1568;DHT22;777;47.156;8.326;2023-06-05T05:42:15;17.20;99.90
1568;DHT22;777;47.156;8.326;2023-06-05T05:44:43;17.30;99.90
1568;DHT22;777;47.156;8.326;2023-06-05T05:47:10;17.50;99.90
1568;DHT22;777;47.156;8.326;2023-06-05T05:49:37;17.50;99.90
1568;DHT22;777;47.156;8.326;2023-06-05T05:52:04;17.50;99.90
1568;DHT22;777;47.156;8.326;2023-06-05T05:54:31;17.70;99.90
1568;DHT22;777;47.156;8.326;2023-06-05T05:56:58;17.80;99.90
1568;DHT22;777;47.156;8.326;2023-06-05T05:59:26;17.80;99.90
1568;DHT22;777;47.156;8.326;2023-06-05T06:01:53;18.00;99.90
1568;DHT22;777;47.156;8.326;2023-06-05T06:04:24;18.20;99.90
1568;DHT22;777;47.156;8.326;2023-06-05T06:06:51;18.10;99.90
1568;DHT22;777;47.156;8.326;2023-06-05T06:09:21;18.30;99.90
1568;DHT22;777;47.156;8.326;2023-06-05T06:11:50;18.40;99.90
1568;DHT22;777;47.156;8.326;2023-06-05T06:14:20;18.50;99.90
1568;DHT22;777;47.156;8.326;2023-06-05T06:16:49;18.60;99.90
1568;DHT22;777;47.156;8.326;2023-06-05T06:19:17;18.60;99.90
1568;DHT22;777;47.156;8.326;2023-06-05T06:21:48;18.50;99.90
1568;DHT22;777;47.156;8.326;2023-06-05T06:24:16;18.30;99.90
1568;DHT22;777;47.156;8.326;2023-06-05T06:26:45;18.20;99.90
1568;DHT22;777;47.156;8.326;2023-06-05T06:29:14;18.60;99.90
1568;DHT22;777;47.156;8.326;2023-06-05T06:31:42;19.00;99.90
1568;DHT22;777;47.156;8.326;2023-06-05T06:34:11;19.20;99.90
1568;DHT22;777;47.156;8.326;2023-06-05T06:36:37;19.30;99.90
1568;DHT22;777;47.156;8.326;2023-06-05T06:39:06;19.60;99.90
1568;DHT22;777;47.156;8.326;2023-06-05T06:41:33;19.20;99.90
1568;DHT22;777;47.156;8.326;2023-06-05T06:44:00;19.40;99.90
1568;DHT22;777;47.156;8.326;2023-06-05T06:46:27;19.50;99.90
1568;DHT22;777;47.156;8.326;2023-06-05T06:48:54;19.80;99.90
1568;DHT22;777;47.156;8.326;2023-06-05T06:51:22;20.00;99.90
1568;DHT22;777;47.156;8.326;2023-06-05T06:53:50;20.50;99.90
1568;DHT22;777;47.156;8.326;2023-06-05T06:56:17;20.80;99.90
1568;DHT22;777;47.156;8.326;2023-06-05T06:58:44;20.90;99.90
1568;DHT22;777;47.156;8.326;2023-06-05T07:01:13;21.30;99.90
1568;DHT22;777;47.156;8.326;2023-06-05T07:03:40;21.30;99.90
1568;DHT22;777;47.156;8.326;2023-06-05T07:06:09;21.30;99.90
1568;DHT22;777;47.156;8.326;2023-06-05T07:08:38;21.40;99.90
1568;DHT22;777;47.156;8.326;2023-06-05T07:11:05;21.60;99.90
1568;DHT22;777;47.156;8.326;2023-06-05T07:13:32;21.80;99.90
1568;DHT22;777;47.156;8.326;2023-06-05T07:15:59;22.20;99.90
1568;DHT22;777;47.156;8.326;2023-06-05T07:18:26;22.30;99.90
1568;DHT22;777;47.156;8.326;2023-06-05T07:20:53;22.50;99.90
1568;DHT22;777;47.156;8.326;2023-06-05T07:23:20;22.60;99.90
1568;DHT22;777;47.156;8.326;2023-06-05T07:25:48;22.10;99.90
1568;DHT22;777;47.156;8.326;2023-06-05T07:28:16;22.10;99.90
1568;DHT22;777;47.156;8.326;2023-06-05T07:30:44;22.00;99.90
1568;DHT22;777;47.156;8.326;2023-06-05T07:33:11;22.10;99.90
1568;DHT22;777;47.156;8.326;2023-06-05T07:35:39;21.60;99.90
1568;DHT22;777;47.156;8.326;2023-06-05T07:38:06;21.40;99.90
1568;DHT22;777;47.156;8.326;2023-06-05T07:40:32;21.00;99.90
1568;DHT22;777;47.156;8.326;2023-06-05T07:43:01;21.10;99.90
1568;DHT22;777;47.156;8.326;2023-06-05T07:45:28;21.20;99.90
1568;DHT22;777;47.156;8.326;2023-06-05T07:47:54;21.30;99.90
1568;DHT22;777;47.156;8.326;2023-06-05T07:50:21;21.60;99.90
1568;DHT22;777;47.156;8.326;2023-06-05T07:52:48;21.30;99.90
1568;DHT22;777;47.156;8.326;2023-06-05T07:55:15;21.50;99.90
1568;DHT22;777;47.156;8.326;2023-06-05T07:57:43;22.20;99.90
1568;DHT22;777;47.156;8.326;2023-06-05T08:00:12;22.50;99.90
1568;DHT22;777;47.156;8.326;2023-06-05T08:02:39;22.70;99.90
1568;DHT22;777;47.156;8.326;2023-06-05T08:05:07;22.90;99.90
1568;DHT22;777;47.156;8.326;2023-06-05T08:07:34;23.30;99.90
1568;DHT22;777;47.156;8.326;2023-06-05T08:10:01;23.30;99.90
1568;DHT22;777;47.156;8.326;2023-06-05T08:12:28;23.40;99.90
1568;DHT22;777;47.156;8.326;2023-06-05T08:14:55;23.20;99.90
1568;DHT22;777;47.156;8.326;2023-06-05T08:17:23;22.80;99.90
1568;DHT22;777;47.156;8.326;2023-06-05T08:19:50;23.00;99.90
1568;DHT22;777;47.156;8.326;2023-06-05T08:22:17;23.50;99.90
1568;DHT22;777;47.156;8.326;2023-06-05T08:24:44;23.50;99.90
1568;DHT22;777;47.156;8.326;2023-06-05T08:27:10;23.20;99.90
1568;DHT22;777;47.156;8.326;2023-06-05T08:29:37;23.00;99.90
1568;DHT22;777;47.156;8.326;2023-06-05T08:32:05;23.20;99.90
1568;DHT22;777;47.156;8.326;2023-06-05T08:34:34;23.40;99.90
1568;DHT22;777;47.156;8.326;2023-06-05T08:37:01;23.60;99.90
1568;DHT22;777;47.156;8.326;2023-06-05T08:39:28;23.80;99.90
1568;DHT22;777;47.156;8.326;2023-06-05T08:41:57;24.00;99.90
1568;DHT22;777;47.156;8.326;2023-06-05T08:44:26;24.30;99.90
1568;DHT22;777;47.156;8.326;2023-06-05T08:46:59;24.20;99.90
1568;DHT22;777;47.156;8.326;2023-06-05T08:49:27;24.30;99.90
1568;DHT22;777;47.156;8.326;2023-06-05T08:51:58;24.40;99.90
1568;DHT22;777;47.156;8.326;2023-06-05T08:54:28;24.20;99.90
1568;DHT22;777;47.156;8.326;2023-06-05T08:56:58;24.20;99.90
1568;DHT22;777;47.156;8.326;2023-06-05T08:59:26;23.90;99.90
1568;DHT22;777;47.156;8.326;2023-06-05T09:01:53;23.50;99.90
1568;DHT22;777;47.156;8.326;2023-06-05T09:04:21;24.00;99.90
1568;DHT22;777;47.156;8.326;2023-06-05T09:06:48;24.20;99.90
1568;DHT22;777;47.156;8.326;2023-06-05T09:09:19;24.30;99.90
1568;DHT22;777;47.156;8.326;2023-06-05T09:11:46;24.60;99.90
1568;DHT22;777;47.156;8.326;2023-06-05T09:14:13;25.00;99.90
1568;DHT22;777;47.156;8.326;2023-06-05T09:16:41;25.00;99.90
1568;DHT22;777;47.156;8.326;2023-06-05T09:19:09;24.30;99.90
1568;DHT22;777;47.156;8.326;2023-06-05T09:21:37;24.20;99.90
1568;DHT22;777;47.156;8.326;2023-06-05T09:24:14;24.60;99.90
1568;DHT22;777;47.156;8.326;2023-06-05T09:26:52;25.00;99.90
1568;DHT22;777;47.156;8.326;2023-06-05T09:29:24;24.70;99.90
1568;DHT22;777;47.156;8.326;2023-06-05T09:31:53;24.40;99.90
1568;DHT22;777;47.156;8.326;2023-06-05T09:34:21;24.40;99.90
1568;DHT22;777;47.156;8.326;2023-06-05T09:36:48;24.20;99.90
1568;DHT22;777;47.156;8.326;2023-06-05T09:39:15;23.70;99.90
1568;DHT22;777;47.156;8.326;2023-06-05T09:41:43;23.80;99.90
1568;DHT22;777;47.156;8.326;2023-06-05T09:44:12;23.70;99.90
1568;DHT22;777;47.156;8.326;2023-06-05T09:46:53;23.80;99.90
1568;DHT22;777;47.156;8.326;2023-06-05T09:49:21;24.20;99.90
1568;DHT22;777;47.156;8.326;2023-06-05T09:51:48;24.70;99.90
1568;DHT22;777;47.156;8.326;2023-06-05T09:54:16;24.70;99.90
1568;DHT22;777;47.156;8.326;2023-06-05T09:56:47;25.10;99.90
1568;DHT22;777;47.156;8.326;2023-06-05T09:59:19;25.10;99.90
1568;DHT22;777;47.156;8.326;2023-06-05T10:01:49;25.40;99.90
1568;DHT22;777;47.156;8.326;2023-06-05T10:04:18;25.60;99.90
1568;DHT22;777;47.156;8.326;2023-06-05T10:06:47;25.20;99.90
1568;DHT22;777;47.156;8.326;2023-06-05T10:09:15;25.00;99.90
1568;DHT22;777;47.156;8.326;2023-06-05T10:11:42;25.20;99.90
1568;DHT22;777;47.156;8.326;2023-06-05T10:14:10;25.60;99.90
1568;DHT22;777;47.156;8.326;2023-06-05T10:16:38;26.10;99.90
1568;DHT22;777;47.156;8.326;2023-06-05T10:19:06;26.00;99.90
1568;DHT22;777;47.156;8.326;2023-06-05T10:21:34;26.00;99.90
1568;DHT22;777;47.156;8.326;2023-06-05T10:24:03;26.30;99.90
1568;DHT22;777;47.156;8.326;2023-06-05T10:26:54;25.80;99.90
1568;DHT22;777;47.156;8.326;2023-06-05T10:32:36;25.60;99.90
1568;DHT22;777;47.156;8.326;2023-06-05T10:35:12;25.90;99.90
1568;DHT22;777;47.156;8.326;2023-06-05T10:37:49;26.10;99.90
1568;DHT22;777;47.156;8.326;2023-06-05T10:40:19;26.50;99.90
1568;DHT22;777;47.156;8.326;2023-06-05T10:42:47;25.70;99.90
1568;DHT22;777;47.156;8.326;2023-06-05T10:45:29;25.10;99.90
1568;DHT22;777;47.156;8.326;2023-06-05T10:47:57;25.90;99.90
1568;DHT22;777;47.156;8.326;2023-06-05T10:50:27;26.00;99.90
1568;DHT22;777;47.156;8.326;2023-06-05T10:52:56;26.10;99.90
1568;DHT22;777;47.156;8.326;2023-06-05T10:55:25;25.90;99.90
1568;DHT22;777;47.156;8.326;2023-06-05T10:58:06;25.60;99.90
1568;DHT22;777;47.156;8.326;2023-06-05T11:00:34;26.30;99.90
1568;DHT22;777;47.156;8.326;2023-06-05T11:03:03;27.00;99.90
1568;DHT22;777;47.156;8.326;2023-06-05T11:05:31;26.20;99.90
1568;DHT22;777;47.156;8.326;2023-06-05T11:08:12;25.00;99.90
1568;DHT22;777;47.156;8.326;2023-06-05T11:11:04;24.70;99.90
1568;DHT22;777;47.156;8.326;2023-06-05T11:13:54;25.00;99.90
1568;DHT22;777;47.156;8.326;2023-06-05T11:16:28;25.70;99.90
1568;DHT22;777;47.156;8.326;2023-06-05T11:22:05;25.00;99.90
1568;DHT22;777;47.156;8.326;2023-06-05T11:24:33;25.10;99.90
1568;DHT22;777;47.156;8.326;2023-06-05T11:27:01;25.90;99.90
1568;DHT22;777;47.156;8.326;2023-06-05T11:29:29;25.80;99.90
1568;DHT22;777;47.156;8.326;2023-06-05T11:31:56;25.80;99.90
1568;DHT22;777;47.156;8.326;2023-06-05T11:34:24;25.90;99.90
1568;DHT22;777;47.156;8.326;2023-06-05T11:36:51;26.80;99.90
1568;DHT22;777;47.156;8.326;2023-06-05T11:39:19;25.80;99.90
1568;DHT22;777;47.156;8.326;2023-06-05T11:41:48;24.50;99.90
1568;DHT22;777;47.156;8.326;2023-06-05T11:44:29;23.40;99.90
1568;DHT22;777;47.156;8.326;2023-06-05T11:46:57;22.70;99.90
1568;DHT22;777;47.156;8.326;2023-06-05T11:49:24;23.40;99.90
1568;DHT22;777;47.156;8.326;2023-06-05T11:51:52;24.20;99.90
1568;DHT22;777;47.156;8.326;2023-06-05T11:54:27;24.90;99.90
1568;DHT22;777;47.156;8.326;2023-06-05T11:57:00;25.10;99.90
1568;DHT22;777;47.156;8.326;2023-06-05T11:59:34;25.10;99.90
1568;DHT22;777;47.156;8.326;2023-06-05T12:02:00;25.20;99.90
1568;DHT22;777;47.156;8.326;2023-06-05T12:04:29;26.70;99.90
1568;DHT22;777;47.156;8.326;2023-06-05T12:06:56;26.20;99.90
1568;DHT22;777;47.156;8.326;2023-06-05T12:09:26;26.60;99.90
1568;DHT22;777;47.156;8.326;2023-06-05T12:12:04;26.80;99.90
1568;DHT22;777;47.156;8.326;2023-06-05T12:14:33;25.90;99.90
1568;DHT22;777;47.156;8.326;2023-06-05T12:17:00;25.90;99.90
1568;DHT22;777;47.156;8.326;2023-06-05T12:19:28;28.00;99.90
1568;DHT22;777;47.156;8.326;2023-06-05T12:22:02;29.90;99.90
1568;DHT22;777;47.156;8.326;2023-06-05T12:24:31;28.10;99.70
1568;DHT22;777;47.156;8.326;2023-06-05T12:27:00;26.90;99.90
1568;DHT22;777;47.156;8.326;2023-06-05T12:29:31;27.20;99.90
1568;DHT22;777;47.156;8.326;2023-06-05T12:31:59;27.20;99.10
1568;DHT22;777;47.156;8.326;2023-06-05T12:34:40;27.60;99.30
1568;DHT22;777;47.156;8.326;2023-06-05T12:37:08;26.40;99.90
1568;DHT22;777;47.156;8.326;2023-06-05T12:39:36;26.50;99.90
1568;DHT22;777;47.156;8.326;2023-06-05T12:42:03;27.00;99.90
1568;DHT22;777;47.156;8.326;2023-06-05T12:44:30;27.90;98.80
1568;DHT22;777;47.156;8.326;2023-06-05T12:46:57;29.10;97.90
1568;DHT22;777;47.156;8.326;2023-06-05T12:49:24;31.20;95.70
1568;DHT22;777;47.156;8.326;2023-06-05T12:51:51;31.50;95.90
1568;DHT22;777;47.156;8.326;2023-06-05T12:54:18;31.70;92.80
1568;DHT22;777;47.156;8.326;2023-06-05T12:56:46;29.50;93.80
1568;DHT22;777;47.156;8.326;2023-06-05T12:59:14;28.80;95.10
1568;DHT22;777;47.156;8.326;2023-06-05T13:01:41;27.20;95.00
1568;DHT22;777;47.156;8.326;2023-06-05T13:04:08;29.30;95.50
1568;DHT22;777;47.156;8.326;2023-06-05T13:06:35;28.80;93.20
1568;DHT22;777;47.156;8.326;2023-06-05T13:09:03;27.60;93.80
1568;DHT22;777;47.156;8.326;2023-06-05T13:11:30;27.20;94.80
1568;DHT22;777;47.156;8.326;2023-06-05T13:13:58;26.50;94.30
1568;DHT22;777;47.156;8.326;2023-06-05T13:16:27;28.40;95.10
1568;DHT22;777;47.156;8.326;2023-06-05T13:18:53;31.00;92.50
1568;DHT22;777;47.156;8.326;2023-06-05T13:21:21;32.60;90.50
1568;DHT22;777;47.156;8.326;2023-06-05T13:23:48;34.20;85.90
1568;DHT22;777;47.156;8.326;2023-06-05T13:26:15;32.00;85.80
1568;DHT22;777;47.156;8.326;2023-06-05T13:28:42;33.70;83.50
1568;DHT22;777;47.156;8.326;2023-06-05T13:31:11;35.10;80.90
1568;DHT22;777;47.156;8.326;2023-06-05T13:33:39;33.70;78.60
1568;DHT22;777;47.156;8.326;2023-06-05T13:36:07;34.60;79.30
1568;DHT22;777;47.156;8.326;2023-06-05T13:38:34;35.40;76.60
1568;DHT22;777;47.156;8.326;2023-06-05T13:41:03;34.70;75.90
1568;DHT22;777;47.156;8.326;2023-06-05T13:43:30;35.00;75.70
1568;DHT22;777;47.156;8.326;2023-06-05T13:45:57;29.50;80.20
1568;DHT22;777;47.156;8.326;2023-06-05T13:48:25;31.00;83.90
1568;DHT22;777;47.156;8.326;2023-06-05T13:50:52;33.30;79.10
1568;DHT22;777;47.156;8.326;2023-06-05T13:53:19;31.90;77.70
1568;DHT22;777;47.156;8.326;2023-06-05T13:55:46;28.80;80.50
1568;DHT22;777;47.156;8.326;2023-06-05T13:58:13;28.70;82.20
1568;DHT22;777;47.156;8.326;2023-06-05T14:00:40;29.40;80.50
1568;DHT22;777;47.156;8.326;2023-06-05T14:03:07;28.60;79.40
1568;DHT22;777;47.156;8.326;2023-06-05T14:05:36;27.20;81.30
1568;DHT22;777;47.156;8.326;2023-06-05T14:08:03;27.60;85.40
1568;DHT22;777;47.156;8.326;2023-06-05T14:10:30;28.20;85.30
1568;DHT22;777;47.156;8.326;2023-06-05T14:13:01;28.10;86.10
1568;DHT22;777;47.156;8.326;2023-06-05T14:15:31;31.20;83.40
1568;DHT22;777;47.156;8.326;2023-06-05T14:18:01;30.00;80.70
1568;DHT22;777;47.156;8.326;2023-06-05T14:20:28;32.20;81.80
1568;DHT22;777;47.156;8.326;2023-06-05T14:22:57;33.60;78.70
1568;DHT22;777;47.156;8.326;2023-06-05T14:25:24;31.90;79.00
1568;DHT22;777;47.156;8.326;2023-06-05T14:27:53;28.50;81.40
1568;DHT22;777;47.156;8.326;2023-06-05T14:30:20;28.30;82.40
1568;DHT22;777;47.156;8.326;2023-06-05T14:32:47;27.40;82.90
1568;DHT22;777;47.156;8.326;2023-06-05T14:35:14;26.80;85.00
1568;DHT22;777;47.156;8.326;2023-06-05T14:37:41;25.60;87.20
1568;DHT22;777;47.156;8.326;2023-06-05T14:40:11;26.00;88.30
1568;DHT22;777;47.156;8.326;2023-06-05T14:42:38;26.90;87.10
1568;DHT22;777;47.156;8.326;2023-06-05T14:45:06;28.60;84.30
1568;DHT22;777;47.156;8.326;2023-06-05T14:47:33;29.30;83.50
1568;DHT22;777;47.156;8.326;2023-06-05T14:50:00;30.50;81.40
1568;DHT22;777;47.156;8.326;2023-06-05T14:52:27;29.90;81.70
1568;DHT22;777;47.156;8.326;2023-06-05T14:54:54;27.90;83.30
1568;DHT22;777;47.156;8.326;2023-06-05T14:57:22;28.10;86.80
1568;DHT22;777;47.156;8.326;2023-06-05T14:59:49;29.80;85.40
1568;DHT22;777;47.156;8.326;2023-06-05T15:02:16;29.20;83.90
1568;DHT22;777;47.156;8.326;2023-06-05T15:04:47;30.30;83.60
1568;DHT22;777;47.156;8.326;2023-06-05T15:07:18;30.20;78.20
1568;DHT22;777;47.156;8.326;2023-06-05T15:09:46;28.30;80.80
1568;DHT22;777;47.156;8.326;2023-06-05T15:12:13;27.40;80.90
1568;DHT22;777;47.156;8.326;2023-06-05T15:14:41;28.50;81.90
1568;DHT22;777;47.156;8.326;2023-06-05T15:17:08;30.30;83.70
1568;DHT22;777;47.156;8.326;2023-06-05T15:19:36;32.20;79.00
1568;DHT22;777;47.156;8.326;2023-06-05T15:22:03;33.30;77.40
1568;DHT22;777;47.156;8.326;2023-06-05T15:24:32;30.10;75.30
1568;DHT22;777;47.156;8.326;2023-06-05T15:26:59;28.80;80.40
1568;DHT22;777;47.156;8.326;2023-06-05T15:29:26;28.00;82.90
1568;DHT22;777;47.156;8.326;2023-06-05T15:31:54;27.30;83.70
1568;DHT22;777;47.156;8.326;2023-06-05T15:34:21;26.00;87.30
1568;DHT22;777;47.156;8.326;2023-06-05T15:36:48;25.90;90.20
1568;DHT22;777;47.156;8.326;2023-06-05T15:39:15;26.70;90.30
1568;DHT22;777;47.156;8.326;2023-06-05T15:41:42;28.30;87.00
1568;DHT22;777;47.156;8.326;2023-06-05T15:44:11;28.70;85.50
1568;DHT22;777;47.156;8.326;2023-06-05T15:46:38;28.10;83.30
1568;DHT22;777;47.156;8.326;2023-06-05T15:49:06;29.60;86.60
1568;DHT22;777;47.156;8.326;2023-06-05T15:51:33;29.30;82.20
1568;DHT22;777;47.156;8.326;2023-06-05T15:53:59;28.70;83.30
1568;DHT22;777;47.156;8.326;2023-06-05T15:56:26;29.50;83.20
1568;DHT22;777;47.156;8.326;2023-06-05T15:58:53;28.40;83.10
1568;DHT22;777;47.156;8.326;2023-06-05T16:01:20;28.90;84.20
1568;DHT22;777;47.156;8.326;2023-06-05T16:03:49;29.60;80.80
1568;DHT22;777;47.156;8.326;2023-06-05T16:06:18;30.20;77.60
1568;DHT22;777;47.156;8.326;2023-06-05T16:08:45;30.10;79.00
1568;DHT22;777;47.156;8.326;2023-06-05T16:11:12;28.20;79.30
1568;DHT22;777;47.156;8.326;2023-06-05T16:13:39;27.90;80.60
1568;DHT22;777;47.156;8.326;2023-06-05T16:16:06;28.00;79.70
1568;DHT22;777;47.156;8.326;2023-06-05T16:18:34;28.70;79.70
1568;DHT22;777;47.156;8.326;2023-06-05T16:21:01;28.40;79.30
1568;DHT22;777;47.156;8.326;2023-06-05T16:23:29;27.70;80.00
1568;DHT22;777;47.156;8.326;2023-06-05T16:25:56;28.20;81.20
1568;DHT22;777;47.156;8.326;2023-06-05T16:28:23;29.30;81.40
1568;DHT22;777;47.156;8.326;2023-06-05T16:30:50;27.50;81.70